createdAt,value
2017-12-28T00:00:43.865Z,5.00
2017-12-28T00:03:11.926Z,4.90
2017-12-28T00:05:39.977Z,5.00
2017-12-28T00:08:08.802Z,4.90
2017-12-28T00:10:36.862Z,4.90
2017-12-28T00:13:04.914Z,5.00
2017-12-28T00:15:33.741Z,5.00
2017-12-28T00:18:01.789Z,5.00
2017-12-28T00:20:29.842Z,4.90
2017-12-28T00:22:58.660Z,4.90
2017-12-28T00:25:26.704Z,4.80
2017-12-28T00:27:55.148Z,4.80
2017-12-28T00:30:23.200Z,4.80
2017-12-28T00:32:51.254Z,4.80
2017-12-28T00:35:19.307Z,4.70
2017-12-28T00:37:48.116Z,4.80
2017-12-28T00:40:16.165Z,4.70
2017-12-28T00:42:44.982Z,4.70
2017-12-28T00:45:13.796Z,4.70
2017-12-28T00:47:41.849Z,4.70
2017-12-28T00:50:09.913Z,4.80
2017-12-28T00:52:37.972Z,4.70
2017-12-28T00:55:06.024Z,4.70
2017-12-28T00:57:34.849Z,4.70
2017-12-28T01:00:02.892Z,4.70
2017-12-28T01:02:31.708Z,4.70
2017-12-28T01:04:59.762Z,4.70
2017-12-28T01:07:27.824Z,4.60
2017-12-28T01:09:56.637Z,4.50
2017-12-28T01:12:24.702Z,4.50
2017-12-28T01:14:52.745Z,4.50
2017-12-28T01:17:21.571Z,4.50
2017-12-28T01:19:49.620Z,4.40
2017-12-28T01:22:17.674Z,4.40
2017-12-28T01:24:46.496Z,4.40
2017-12-28T01:27:14.541Z,4.40
2017-12-28T01:29:43.356Z,4.50
2017-12-28T01:32:11.420Z,4.40
2017-12-28T01:34:39.469Z,4.50
2017-12-28T01:37:08.306Z,4.50
2017-12-28T01:39:36.357Z,4.50
2017-12-28T01:42:04.414Z,4.50
2017-12-28T01:44:33.254Z,4.50
2017-12-28T01:47:01.310Z,4.50
2017-12-28T01:49:29.363Z,4.50
2017-12-28T01:51:57.422Z,4.50
2017-12-28T01:54:26.238Z,4.60
2017-12-28T01:56:54.288Z,4.60
2017-12-28T01:59:22.337Z,4.50
2017-12-28T02:01:51.161Z,4.60
2017-12-28T02:04:19.204Z,4.60
2017-12-28T02:06:48.026Z,4.50
2017-12-28T02:09:16.084Z,4.60
2017-12-28T02:11:44.129Z,4.60
2017-12-28T02:14:12.942Z,4.60
2017-12-28T02:16:41.005Z,4.60
2017-12-28T02:19:09.813Z,4.60
2017-12-28T02:21:37.875Z,4.60
2017-12-28T02:24:05.917Z,4.60
2017-12-28T02:26:33.978Z,4.50
2017-12-28T02:29:02.025Z,4.50
2017-12-28T02:31:30.100Z,4.40
2017-12-28T02:33:58.141Z,4.40
2017-12-28T02:36:26.185Z,4.50
2017-12-28T02:38:55.009Z,4.50
2017-12-28T02:41:23.057Z,4.50
2017-12-28T02:43:51.117Z,4.50
2017-12-28T02:46:19.928Z,4.50
2017-12-28T02:48:47.997Z,4.50
2017-12-28T02:51:16.040Z,4.50
2017-12-28T02:53:44.085Z,4.50
2017-12-28T02:56:12.141Z,4.50
2017-12-28T02:58:40.184Z,4.60
2017-12-28T03:01:08.253Z,4.60
2017-12-28T03:03:36.300Z,4.60
2017-12-28T03:06:05.108Z,4.70
2017-12-28T03:08:33.168Z,4.70
2017-12-28T03:11:01.980Z,4.60
2017-12-28T03:13:30.049Z,4.60
2017-12-28T03:15:58.093Z,4.60
2017-12-28T03:18:26.904Z,4.60
2017-12-28T03:20:54.977Z,4.60
2017-12-28T03:23:23.021Z,4.70
2017-12-28T03:25:51.068Z,4.60
2017-12-28T03:28:19.128Z,4.60
2017-12-28T03:30:47.182Z,4.60
2017-12-28T03:33:15.248Z,4.60
2017-12-28T03:35:43.296Z,4.50
2017-12-28T03:38:12.112Z,4.60
2017-12-28T03:40:40.169Z,4.50
2017-12-28T03:43:08.216Z,4.50
2017-12-28T03:45:37.041Z,4.40
2017-12-28T03:48:05.096Z,4.40
2017-12-28T03:50:33.156Z,4.40
2017-12-28T03:53:01.965Z,4.30
2017-12-28T03:55:30.035Z,4.30
2017-12-28T03:57:58.464Z,4.30
2017-12-28T04:00:26.526Z,4.20
2017-12-28T04:02:54.977Z,4.30
2017-12-28T04:05:23.028Z,4.30
2017-12-28T04:07:51.869Z,4.30
2017-12-28T04:10:19.912Z,4.30
2017-12-28T04:12:47.956Z,4.30
2017-12-28T04:15:16.785Z,4.40
2017-12-28T04:17:44.844Z,4.40
2017-12-28T04:20:12.904Z,4.40
2017-12-28T04:22:40.972Z,4.40
2017-12-28T04:25:09.017Z,4.40
2017-12-28T04:27:37.457Z,4.30
2017-12-28T04:30:05.512Z,4.30
2017-12-28T04:32:33.560Z,4.30
2017-12-28T04:35:02.387Z,4.30
2017-12-28T04:37:30.433Z,4.30
2017-12-28T04:39:58.493Z,4.20
2017-12-28T04:42:27.324Z,4.30
2017-12-28T04:44:55.768Z,4.30
2017-12-28T04:47:23.809Z,4.30
2017-12-28T04:49:51.868Z,4.40
2017-12-28T04:52:19.913Z,4.40
2017-12-28T04:54:47.973Z,4.40
2017-12-28T04:57:16.020Z,4.40
2017-12-28T04:59:44.082Z,4.50
2017-12-28T05:02:12.912Z,4.50
2017-12-28T05:04:40.956Z,4.50
2017-12-28T05:07:09.000Z,4.40
2017-12-28T05:09:37.081Z,4.40
2017-12-28T05:12:05.896Z,4.40
2017-12-28T05:14:33.941Z,4.40
2017-12-28T05:17:02.764Z,4.40
2017-12-28T05:19:30.809Z,4.40
2017-12-28T05:21:59.675Z,4.40
2017-12-28T05:24:27.688Z,4.40
2017-12-28T05:26:55.733Z,4.40
2017-12-28T05:29:24.564Z,4.40
2017-12-28T05:31:52.609Z,4.40
2017-12-28T05:34:21.416Z,4.50
2017-12-28T05:36:49.478Z,4.50
2017-12-28T05:39:17.521Z,4.50
2017-12-28T05:41:45.584Z,4.50
2017-12-28T05:44:13.644Z,4.60
2017-12-28T05:46:41.700Z,4.50
2017-12-28T05:49:09.748Z,4.40
2017-12-28T05:51:37.808Z,4.40
2017-12-28T05:54:05.859Z,4.50
2017-12-28T05:56:34.676Z,4.50
2017-12-28T05:59:02.725Z,4.50
2017-12-28T06:01:31.552Z,4.50
2017-12-28T06:03:59.612Z,4.50
2017-12-28T06:06:27.672Z,4.50
2017-12-28T06:08:55.736Z,4.50
2017-12-28T06:11:24.548Z,4.50
2017-12-28T06:13:52.608Z,4.50
2017-12-28T06:16:20.656Z,4.50
2017-12-28T06:18:49.482Z,4.50
2017-12-28T06:21:17.524Z,4.40
2017-12-28T06:23:46.351Z,4.40
2017-12-28T06:26:14.397Z,4.30
2017-12-28T06:28:42.465Z,4.30
2017-12-28T06:31:10.511Z,4.30
2017-12-28T06:33:38.553Z,4.40
2017-12-28T06:36:06.600Z,4.30
2017-12-28T06:38:34.661Z,4.20
2017-12-28T06:41:02.708Z,4.20
2017-12-28T06:43:31.532Z,4.20
2017-12-28T06:45:59.584Z,4.10
2017-12-28T06:48:27.628Z,4.20
2017-12-28T06:50:55.689Z,4.20
2017-12-28T06:53:23.748Z,4.20
2017-12-28T06:55:51.801Z,4.20
2017-12-28T06:58:19.865Z,4.20
2017-12-28T07:00:47.908Z,4.20
2017-12-28T07:03:16.868Z,4.10
2017-12-28T07:05:44.913Z,4.20
2017-12-28T07:08:12.976Z,4.20
2017-12-28T07:10:41.020Z,4.10
2017-12-28T07:13:09.096Z,4.00
2017-12-28T07:15:37.133Z,4.00
2017-12-28T07:18:05.180Z,4.00
2017-12-28T07:20:33.253Z,4.00
2017-12-28T07:23:01.312Z,4.00
2017-12-28T07:25:29.365Z,4.00
2017-12-28T07:27:57.440Z,4.00
2017-12-28T07:30:25.484Z,4.00
2017-12-28T07:32:53.538Z,3.90
2017-12-28T07:35:22.365Z,3.90
2017-12-28T07:37:50.444Z,4.00
2017-12-28T07:40:18.492Z,4.00
2017-12-28T07:42:46.553Z,4.00
2017-12-28T07:45:15.376Z,4.00
2017-12-28T07:47:43.428Z,4.00
2017-12-28T07:50:11.500Z,4.00
2017-12-28T07:52:39.545Z,4.00
2017-12-28T07:55:07.604Z,4.10
2017-12-28T07:57:35.664Z,4.20
2017-12-28T08:00:03.725Z,4.20
2017-12-28T08:02:31.790Z,4.30
2017-12-28T08:04:59.833Z,4.30
2017-12-28T08:07:28.288Z,4.60
2017-12-28T08:09:56.728Z,4.50
2017-12-28T08:12:24.788Z,4.50
2017-12-28T08:14:52.833Z,4.60
2017-12-28T08:17:20.897Z,4.60
2017-12-28T08:19:49.722Z,4.50
2017-12-28T08:22:17.760Z,4.50
2017-12-28T08:24:46.584Z,4.60
2017-12-28T08:27:14.632Z,4.70
2017-12-28T08:29:42.693Z,4.70
2017-12-28T08:32:11.505Z,4.50
2017-12-28T08:34:39.568Z,4.50
2017-12-28T08:37:07.632Z,4.50
2017-12-28T08:39:35.692Z,4.60
2017-12-28T08:42:04.504Z,4.60
2017-12-28T08:44:32.564Z,4.70
2017-12-28T08:47:00.608Z,4.70
2017-12-28T08:49:28.668Z,4.70
2017-12-28T08:51:56.769Z,4.60
2017-12-28T08:54:25.597Z,4.60
2017-12-28T08:56:53.644Z,4.60
2017-12-28T08:59:21.705Z,4.60
2017-12-28T09:01:50.153Z,4.50
2017-12-28T09:04:18.213Z,4.50
2017-12-28T09:06:46.677Z,4.50
2017-12-28T09:09:14.720Z,4.50
2017-12-28T09:11:42.764Z,4.60
2017-12-28T09:14:11.589Z,4.50
2017-12-28T09:16:39.649Z,4.50
2017-12-28T09:19:07.710Z,4.60
2017-12-28T09:21:36.537Z,4.60
2017-12-28T09:24:04.594Z,4.60
2017-12-28T09:26:33.036Z,4.60
2017-12-28T09:29:01.092Z,4.70
2017-12-28T09:31:30.649Z,4.80
2017-12-28T09:33:58.720Z,5.00
2017-12-28T09:36:27.061Z,5.20
2017-12-28T09:38:54.620Z,5.30
2017-12-28T09:41:22.118Z,5.10
2017-12-28T09:43:49.642Z,5.00
2017-12-28T09:46:17.133Z,5.00
2017-12-28T09:48:44.644Z,4.80
2017-12-28T09:51:12.541Z,4.70
2017-12-28T09:53:40.819Z,4.60
2017-12-28T09:56:09.100Z,4.70
2017-12-28T09:58:37.360Z,4.60
2017-12-28T10:01:04.880Z,4.70
2017-12-28T10:03:32.377Z,4.70
2017-12-28T10:05:59.872Z,4.70
2017-12-28T10:08:27.384Z,4.70
2017-12-28T10:10:55.300Z,4.70
2017-12-28T10:13:22.812Z,4.70
2017-12-28T10:15:50.312Z,4.70
2017-12-28T10:18:17.844Z,4.70
2017-12-28T10:20:46.124Z,4.70
2017-12-28T10:23:14.386Z,4.60
2017-12-28T10:25:41.939Z,4.70
2017-12-28T10:28:09.413Z,4.60
2017-12-28T10:30:37.676Z,4.70
2017-12-28T10:33:05.188Z,4.70
2017-12-28T10:35:32.700Z,4.70
2017-12-28T10:38:00.209Z,4.70
2017-12-28T10:40:27.716Z,4.60
2017-12-28T10:42:55.212Z,4.60
2017-12-28T10:45:22.724Z,4.60
2017-12-28T10:47:50.629Z,4.70
2017-12-28T10:50:18.130Z,4.60
2017-12-28T10:52:45.635Z,4.70
2017-12-28T10:55:13.896Z,4.60
2017-12-28T10:57:41.408Z,4.60
2017-12-28T11:00:09.012Z,4.60
2017-12-28T11:02:36.523Z,4.50
2017-12-28T11:05:04.017Z,4.60
2017-12-28T11:07:31.532Z,4.60
2017-12-28T11:09:59.468Z,4.80
2017-12-28T11:12:27.360Z,5.00
2017-12-28T11:14:54.862Z,5.20
2017-12-28T11:17:22.368Z,5.30
2017-12-28T11:19:51.452Z,6.00
2017-12-28T11:22:19.368Z,6.00
2017-12-28T11:24:46.864Z,6.30
2017-12-28T11:27:14.360Z,6.50
2017-12-28T11:29:41.872Z,6.60
2017-12-28T11:32:09.372Z,6.70
2017-12-28T11:34:37.652Z,6.90
2017-12-28T11:37:05.161Z,6.80
2017-12-28T11:39:32.645Z,7.30
2017-12-28T11:42:00.934Z,8.50
2017-12-28T11:44:29.196Z,9.30
2017-12-28T11:46:57.452Z,9.70
2017-12-28T11:49:24.972Z,10.10
2017-12-28T11:51:58.262Z,10.20
2017-12-28T11:54:31.777Z,9.30
2017-12-28T11:57:02.232Z,8.20
2017-12-28T11:59:29.748Z,7.10
2017-12-28T12:02:02.999Z,6.30
2017-12-28T12:04:48.352Z,6.10
2017-12-28T12:07:15.865Z,5.90
2017-12-28T12:09:49.316Z,5.70
2017-12-28T12:12:16.827Z,5.40
2017-12-28T12:14:44.327Z,5.40
2017-12-28T12:17:11.855Z,5.00
2017-12-28T12:19:39.380Z,5.00
2017-12-28T12:22:07.644Z,4.80
2017-12-28T12:24:35.169Z,4.90
2017-12-28T12:27:02.668Z,4.90
2017-12-28T12:29:30.932Z,5.10
2017-12-28T12:31:58.444Z,5.00
2017-12-28T12:34:25.946Z,5.10
2017-12-28T12:36:53.489Z,5.10
2017-12-28T12:39:20.956Z,5.00
2017-12-28T12:41:48.474Z,5.00
2017-12-28T12:44:15.972Z,5.00
2017-12-28T12:46:43.492Z,5.00
2017-12-28T12:49:10.988Z,5.00
2017-12-28T12:51:38.492Z,5.20
2017-12-28T12:54:06.000Z,5.30
2017-12-28T12:56:33.508Z,5.50
2017-12-28T12:59:01.416Z,5.50
2017-12-28T13:01:28.913Z,5.50
2017-12-28T13:03:56.440Z,5.40
2017-12-28T13:06:23.932Z,5.60
2017-12-28T13:08:52.200Z,5.50
2017-12-28T13:11:19.712Z,5.40
2017-12-28T13:13:50.592Z,5.40
2017-12-28T13:16:18.112Z,5.40
2017-12-28T13:18:45.608Z,5.40
2017-12-28T13:21:13.106Z,5.30
2017-12-28T13:23:40.616Z,4.90
2017-12-28T13:26:08.119Z,4.70
2017-12-28T13:28:36.392Z,4.50
2017-12-28T13:31:04.696Z,4.50
2017-12-28T13:33:32.931Z,4.50
2017-12-28T13:36:01.212Z,4.50
2017-12-28T13:38:29.504Z,4.60
2017-12-28T13:40:57.004Z,4.70
2017-12-28T13:43:24.496Z,4.70
2017-12-28T13:45:52.010Z,4.80
2017-12-28T13:48:19.504Z,5.00
2017-12-28T13:50:47.020Z,5.00
2017-12-28T13:53:14.536Z,5.00
2017-12-28T13:55:42.797Z,5.10
2017-12-28T13:58:10.292Z,5.10
2017-12-28T14:00:37.804Z,5.00
2017-12-28T14:03:05.332Z,4.90
2017-12-28T14:05:32.840Z,4.80
2017-12-28T14:08:00.336Z,4.80
2017-12-28T14:10:27.849Z,4.70
2017-12-28T14:12:55.356Z,4.70
2017-12-28T14:15:22.866Z,4.70
2017-12-28T14:17:50.364Z,4.70
2017-12-28T14:20:17.876Z,4.70
2017-12-28T14:22:45.380Z,4.70
2017-12-28T14:25:12.944Z,4.70
2017-12-28T14:27:40.452Z,4.60
2017-12-28T14:30:07.958Z,4.60
2017-12-28T14:32:36.235Z,4.60
2017-12-28T14:35:04.496Z,4.50
2017-12-28T14:37:32.760Z,4.60
2017-12-28T14:40:00.287Z,4.60
2017-12-28T14:42:27.780Z,4.70
2017-12-28T14:44:56.044Z,4.70
2017-12-28T14:47:23.560Z,4.70
2017-12-28T14:49:51.093Z,4.70
2017-12-28T14:52:19.352Z,4.60
2017-12-28T14:54:47.332Z,4.50
2017-12-28T14:57:15.608Z,4.50
2017-12-28T14:59:43.884Z,4.30
2017-12-28T15:02:12.169Z,4.20
2017-12-28T15:04:39.686Z,4.20
2017-12-28T15:07:07.196Z,4.10
2017-12-28T15:09:34.696Z,4.10
2017-12-28T15:12:02.220Z,4.10
2017-12-28T15:14:29.724Z,4.00
2017-12-28T15:16:57.234Z,4.00
2017-12-28T15:19:24.752Z,4.00
2017-12-28T15:21:52.253Z,4.00
2017-12-28T15:24:19.751Z,4.00
2017-12-28T15:26:47.264Z,3.90
2017-12-28T15:29:14.784Z,3.90
2017-12-28T15:31:42.285Z,3.80
2017-12-28T15:34:09.800Z,3.70
2017-12-28T15:36:37.308Z,3.70
2017-12-28T15:39:04.812Z,3.70
2017-12-28T15:41:32.344Z,3.50
2017-12-28T15:43:59.859Z,3.50
2017-12-28T15:46:28.132Z,3.40
2017-12-28T15:48:56.392Z,3.40
2017-12-28T15:51:24.345Z,3.30
2017-12-28T15:53:51.939Z,3.30
2017-12-28T15:56:20.216Z,3.20
2017-12-28T15:58:48.500Z,3.20
2017-12-28T16:01:16.800Z,3.10
2017-12-28T16:03:44.300Z,3.10
2017-12-28T16:06:11.820Z,3.10
2017-12-28T16:08:39.340Z,3.00
2017-12-28T16:11:07.604Z,2.90
2017-12-28T16:13:35.114Z,2.90
2017-12-28T16:16:02.608Z,2.80
2017-12-28T16:18:30.120Z,2.80
2017-12-28T16:20:57.612Z,2.80
2017-12-28T16:23:25.521Z,2.80
2017-12-28T16:25:53.796Z,2.70
2017-12-28T16:28:22.073Z,2.70
2017-12-28T16:30:50.348Z,2.70
2017-12-28T16:33:18.256Z,2.60
2017-12-28T16:35:45.770Z,2.60
2017-12-28T16:38:13.268Z,2.50
2017-12-28T16:40:40.780Z,2.60
2017-12-28T16:43:08.293Z,2.50
2017-12-28T16:45:35.793Z,2.40
2017-12-28T16:48:03.300Z,2.40
2017-12-28T16:50:30.798Z,2.30
2017-12-28T16:52:58.316Z,2.30
2017-12-28T16:55:25.813Z,2.20
2017-12-28T16:57:53.308Z,2.20
2017-12-28T17:00:21.579Z,2.10
2017-12-28T17:02:49.844Z,2.10
2017-12-28T17:05:17.355Z,2.10
2017-12-28T17:07:44.864Z,2.10
2017-12-28T17:10:12.358Z,2.10
2017-12-28T17:12:39.853Z,2.10
2017-12-28T17:15:07.365Z,2.10
2017-12-28T17:17:35.636Z,2.10
2017-12-28T17:20:03.902Z,2.10
2017-12-28T17:22:32.177Z,2.10
2017-12-28T17:25:00.440Z,2.00
2017-12-28T17:27:27.943Z,2.00
2017-12-28T17:29:55.440Z,2.00
2017-12-28T17:32:22.970Z,1.90
2017-12-28T17:34:50.452Z,2.00
2017-12-28T17:37:17.967Z,1.90
2017-12-28T17:39:45.499Z,1.90
2017-12-28T17:42:13.781Z,1.80
2017-12-28T17:44:42.056Z,1.80
2017-12-28T17:47:09.556Z,1.70
2017-12-28T17:49:37.064Z,1.70
2017-12-28T17:52:04.592Z,1.80
2017-12-28T17:54:32.092Z,1.70
2017-12-28T17:57:00.356Z,1.60
2017-12-28T17:59:27.968Z,1.70
2017-12-28T18:01:55.464Z,1.60
2017-12-28T18:04:22.964Z,1.60
2017-12-28T18:06:51.236Z,1.60
2017-12-28T18:09:19.512Z,1.60
2017-12-28T18:11:47.788Z,1.60
2017-12-28T18:14:16.053Z,1.50
2017-12-28T18:16:43.564Z,1.50
2017-12-28T18:19:11.080Z,1.50
2017-12-28T18:21:39.340Z,1.60
2017-12-28T18:24:07.239Z,1.70
2017-12-28T18:26:34.752Z,1.70
2017-12-28T18:29:02.258Z,1.80
2017-12-28T18:31:29.774Z,1.90
2017-12-28T18:33:57.268Z,1.90
2017-12-28T18:36:24.764Z,2.00
2017-12-28T18:38:52.272Z,2.00
2017-12-28T18:41:20.532Z,2.00
2017-12-28T18:43:48.040Z,2.00
2017-12-28T18:46:15.548Z,1.90
2017-12-28T18:48:43.044Z,1.90
2017-12-28T18:51:10.556Z,1.90
2017-12-28T18:53:38.086Z,1.90
2017-12-28T18:56:05.600Z,1.80
2017-12-28T18:58:33.859Z,1.80
2017-12-28T19:01:01.371Z,1.80
2017-12-28T19:03:28.904Z,1.70
2017-12-28T19:05:57.169Z,1.60
2017-12-28T19:08:25.448Z,1.50
2017-12-28T19:10:52.952Z,1.50
2017-12-28T19:13:20.488Z,1.40
2017-12-28T19:15:48.412Z,1.40
2017-12-28T19:18:15.918Z,1.30
2017-12-28T19:20:43.449Z,1.30
2017-12-28T19:23:10.976Z,1.30
2017-12-28T19:25:38.492Z,1.30
2017-12-28T19:28:07.148Z,1.20
2017-12-28T19:30:35.444Z,1.10
2017-12-28T19:33:02.961Z,1.10
2017-12-28T19:35:30.492Z,1.10
2017-12-28T19:37:57.987Z,1.10
2017-12-28T19:40:25.504Z,1.10
2017-12-28T19:42:52.995Z,1.10
2017-12-28T19:45:20.503Z,1.10
2017-12-28T19:47:48.012Z,1.10
2017-12-28T19:50:15.534Z,1.00
2017-12-28T19:52:43.047Z,1.00
2017-12-28T19:55:10.563Z,1.00
2017-12-28T19:57:38.528Z,1.00
2017-12-28T20:00:06.605Z,1.00
2017-12-28T20:02:34.664Z,0.90
2017-12-28T20:05:02.704Z,0.90
2017-12-28T20:07:31.535Z,0.90
2017-12-28T20:09:59.585Z,0.90
2017-12-28T20:12:27.653Z,0.90
2017-12-28T20:14:55.705Z,0.90
2017-12-28T20:17:24.521Z,0.80
2017-12-28T20:19:52.601Z,0.80
2017-12-28T20:22:20.649Z,0.80
2017-12-28T20:24:48.701Z,0.80
2017-12-28T20:27:16.764Z,0.80
2017-12-28T20:29:44.836Z,0.80
2017-12-28T20:32:13.089Z,0.80
2017-12-28T20:34:41.154Z,0.70
2017-12-28T20:37:09.205Z,0.80
2017-12-28T20:39:37.261Z,0.80
2017-12-28T20:42:05.310Z,0.80
2017-12-28T20:44:34.137Z,0.80
2017-12-28T20:47:02.189Z,0.80
2017-12-28T20:49:30.246Z,0.80
2017-12-28T20:51:59.065Z,0.80
2017-12-28T20:54:27.120Z,0.80
2017-12-28T20:56:55.181Z,0.80
2017-12-28T20:59:24.025Z,0.80
2017-12-28T21:01:52.077Z,0.80
2017-12-28T21:04:20.124Z,0.80
2017-12-28T21:06:48.184Z,0.80
2017-12-28T21:09:17.013Z,0.80
2017-12-28T21:11:46.200Z,0.80
2017-12-28T21:14:14.265Z,0.80
2017-12-28T21:16:42.333Z,0.80
2017-12-28T21:19:10.377Z,0.80
2017-12-28T21:21:38.426Z,0.70
2017-12-28T21:24:07.249Z,0.80
2017-12-28T21:26:36.066Z,0.80
2017-12-28T21:29:04.137Z,0.80
2017-12-28T21:31:32.180Z,0.70
2017-12-28T21:34:00.993Z,0.70
2017-12-28T21:36:29.053Z,0.70
2017-12-28T21:38:57.101Z,0.70
2017-12-28T21:41:25.198Z,0.70
2017-12-28T21:43:53.213Z,0.70
2017-12-28T21:46:21.269Z,0.70
2017-12-28T21:48:49.340Z,0.70
2017-12-28T21:51:17.385Z,0.70
2017-12-28T21:53:45.452Z,0.60
2017-12-28T21:56:13.508Z,0.70
2017-12-28T21:58:42.433Z,0.80
2017-12-28T22:01:10.481Z,0.80
2017-12-28T22:03:39.288Z,0.80
2017-12-28T22:06:07.348Z,0.80
2017-12-28T22:08:35.413Z,0.80
2017-12-28T22:11:04.228Z,0.80
2017-12-28T22:13:32.280Z,0.90
2017-12-28T22:16:00.340Z,0.90
2017-12-28T22:18:29.193Z,0.90
2017-12-28T22:20:57.244Z,0.90
2017-12-28T22:23:25.289Z,0.90
2017-12-28T22:25:53.349Z,0.80
2017-12-28T22:28:22.172Z,0.80
2017-12-28T22:30:51.369Z,0.90
2017-12-28T22:33:19.442Z,0.90
2017-12-28T22:35:47.484Z,0.90
2017-12-28T22:38:16.305Z,0.80
2017-12-28T22:40:45.500Z,0.90
2017-12-28T22:43:13.561Z,0.90
2017-12-28T22:45:41.613Z,0.90
2017-12-28T22:48:10.437Z,0.80
2017-12-28T22:50:38.484Z,0.80
2017-12-28T22:53:06.542Z,0.80
2017-12-28T22:55:35.349Z,0.80
2017-12-28T22:58:03.421Z,0.80
2017-12-28T23:00:31.477Z,0.80
2017-12-28T23:03:00.284Z,0.90
2017-12-28T23:05:28.349Z,0.80
2017-12-28T23:07:56.389Z,0.80
2017-12-28T23:10:24.448Z,0.90
2017-12-28T23:12:52.508Z,0.80
2017-12-28T23:15:20.577Z,0.80
2017-12-28T23:17:48.640Z,0.80
2017-12-28T23:20:17.543Z,0.90
2017-12-28T23:22:45.976Z,0.80
2017-12-28T23:25:14.041Z,0.90
2017-12-28T23:27:42.848Z,0.90
2017-12-28T23:30:10.913Z,0.90
2017-12-28T23:32:38.963Z,0.90
2017-12-28T23:35:07.784Z,0.90
2017-12-28T23:37:36.228Z,0.90
2017-12-28T23:40:05.049Z,0.90
2017-12-28T23:42:34.464Z,0.90
2017-12-28T23:45:02.509Z,0.90
2017-12-28T23:47:31.334Z,0.80
2017-12-28T23:49:59.392Z,0.80
2017-12-28T23:52:27.436Z,0.80
2017-12-28T23:54:56.261Z,0.80
2017-12-28T23:57:24.304Z,0.80
2017-12-28T23:59:52.358Z,0.80
